This is the latest recevied weather packets stored in our database for station/object HA6IFZ-10. If no packets are shown the sender has not sent any weather packets the latest 10 day(s).
| Time | Temp. | Humidity | Pressure | Rain* | Wind** | Luminosity | Snow |
|---|---|---|---|---|---|---|---|
| 1788045493 | 18.89° C | 61% | 1023.7 hPa | - | - | - | - |
| 1788043693 | 18.89° C | 60% | 1023.9 hPa | - | - | - | - |
| 1788042793 | 19.44° C | 57% | 1023.8 hPa | - | - | - | - |
| 1788041892 | 20.56° C | 53% | 1023.9 hPa | - | - | - | - |
| 1788040992 | 20.56° C | 53% | 1024 hPa | - | - | - | - |
| 1788040092 | 20.56° C | 54% | 1024 hPa | - | - | - | - |
| 1788039192 | 21.11° C | 50% | 1024 hPa | - | - | - | - |
| 1788038292 | 20.56° C | 52% | 1023.9 hPa | - | - | - | - |
| 1788037391 | 20.56° C | 52% | 1024 hPa | - | - | - | - |
| 1788036491 | 21.11° C | 50% | 1023.9 hPa | - | - | - | - |
| 1788035591 | 20.56° C | 51% | 1023.7 hPa | - | - | - | - |
| 1788034691 | 21.11° C | 49% | 1023.6 hPa | - | - | - | - |
| 1788033791 | 21.67° C | 47% | 1023.7 hPa | - | - | - | - |
| 1788032891 | 21.11° C | 48% | 1023.8 hPa | - | - | - | - |
| 1788031991 | 21.11° C | 49% | 1023.7 hPa | - | - | - | - |
| 1788031091 | 21.67° C | 47% | 1023.7 hPa | - | - | - | - |
| 1788030191 | 21.67° C | 47% | 1023.7 hPa | - | - | - | - |
| 1788029291 | 22.22° C | 46% | 1023.4 hPa | - | - | - | - |
| 1788028390 | 22.78° C | 44% | 1023.3 hPa | - | - | - | - |
| 1788027490 | 22.78° C | 42% | 1023.3 hPa | - | - | - | - |
| 1788026590 | 23.33° C | 40% | 1023.1 hPa | - | - | - | - |
| 1788025690 | 24.44° C | 37% | 1023 hPa | - | - | - | - |
| 1788024790 | 25° C | 36% | 1022.8 hPa | - | - | - | - |
| 1788023890 | 25.56° C | 35% | 1022.7 hPa | - | - | - | - |
| 1788022092 | 27.22° C | 32% | 1022.6 hPa | - | - | - | - |
* Rain since midnight (hover to see other rain measurements)
** Current wind speed in m/s (hover to see current wind gust speed)